sensor_id;sensor_type;location;lat;lon;timestamp;temperature;humidity
23347;DHT22;36852;45.466;11.066;2023-02-01T00:00:44;7.10;99.90
23347;DHT22;36852;45.466;11.066;2023-02-01T00:03:12;7.20;99.90
23347;DHT22;36852;45.466;11.066;2023-02-01T00:05:40;7.10;99.90
23347;DHT22;36852;45.466;11.066;2023-02-01T00:08:08;7.10;99.90
23347;DHT22;36852;45.466;11.066;2023-02-01T00:10:42;7.10;99.90
23347;DHT22;36852;45.466;11.066;2023-02-01T00:13:32;7.10;99.90
23347;DHT22;36852;45.466;11.066;2023-02-01T00:16:22;7.10;99.90
23347;DHT22;36852;45.466;11.066;2023-02-01T00:18:51;7.10;99.90
23347;DHT22;36852;45.466;11.066;2023-02-01T00:21:21;7.10;99.90
23347;DHT22;36852;45.466;11.066;2023-02-01T00:29:16;7.00;99.90
23347;DHT22;36852;45.466;11.066;2023-02-01T00:34:26;6.90;99.90
23347;DHT22;36852;45.466;11.066;2023-02-01T00:36:54;6.90;99.90
23347;DHT22;36852;45.466;11.066;2023-02-01T00:42:05;6.90;99.90
23347;DHT22;36852;45.466;11.066;2023-02-01T00:44:33;6.90;99.90
23347;DHT22;36852;45.466;11.066;2023-02-01T00:47:06;6.90;99.90
23347;DHT22;36852;45.466;11.066;2023-02-01T00:49:34;6.90;99.90
23347;DHT22;36852;45.466;11.066;2023-02-01T00:52:10;6.90;99.90
23347;DHT22;36852;45.466;11.066;2023-02-01T00:54:38;6.90;99.90
23347;DHT22;36852;45.466;11.066;2023-02-01T00:57:06;6.90;99.90
23347;DHT22;36852;45.466;11.066;2023-02-01T00:59:37;6.90;99.90
23347;DHT22;36852;45.466;11.066;2023-02-01T01:02:05;6.90;99.90
23347;DHT22;36852;45.466;11.066;2023-02-01T01:04:33;6.90;99.90
23347;DHT22;36852;45.466;11.066;2023-02-01T01:07:06;6.80;99.90
23347;DHT22;36852;45.466;11.066;2023-02-01T01:09:35;6.90;99.90
23347;DHT22;36852;45.466;11.066;2023-02-01T01:12:19;6.80;99.90
23347;DHT22;36852;45.466;11.066;2023-02-01T01:14:52;6.80;99.90
23347;DHT22;36852;45.466;11.066;2023-02-01T01:17:21;6.80;99.90
23347;DHT22;36852;45.466;11.066;2023-02-01T01:19:49;6.80;99.90
23347;DHT22;36852;45.466;11.066;2023-02-01T01:22:28;6.80;99.90
23347;DHT22;36852;45.466;11.066;2023-02-01T01:24:55;6.70;99.90
23347;DHT22;36852;45.466;11.066;2023-02-01T01:27:42;6.70;99.90
23347;DHT22;36852;45.466;11.066;2023-02-01T01:30:11;6.70;99.90
23347;DHT22;36852;45.466;11.066;2023-02-01T01:32:42;6.70;99.90
23347;DHT22;36852;45.466;11.066;2023-02-01T01:35:11;6.80;99.90
23347;DHT22;36852;45.466;11.066;2023-02-01T01:37:39;6.70;99.90
23347;DHT22;36852;45.466;11.066;2023-02-01T01:40:09;6.70;99.90
23347;DHT22;36852;45.466;11.066;2023-02-01T01:42:40;6.70;99.90
23347;DHT22;36852;45.466;11.066;2023-02-01T01:50:37;6.70;99.90
23347;DHT22;36852;45.466;11.066;2023-02-01T01:53:11;6.60;99.90
23347;DHT22;36852;45.466;11.066;2023-02-01T01:58:27;6.60;99.90
23347;DHT22;36852;45.466;11.066;2023-02-01T02:00:56;6.60;99.90
23347;DHT22;36852;45.466;11.066;2023-02-01T02:03:33;6.60;99.90
23347;DHT22;36852;45.466;11.066;2023-02-01T02:08:51;6.60;99.90
23347;DHT22;36852;45.466;11.066;2023-02-01T02:14:25;6.50;99.90
23347;DHT22;36852;45.466;11.066;2023-02-01T02:17:26;6.50;99.90
23347;DHT22;36852;45.466;11.066;2023-02-01T02:20:17;6.60;99.90
23347;DHT22;36852;45.466;11.066;2023-02-01T02:33:55;6.50;99.90
23347;DHT22;36852;45.466;11.066;2023-02-01T02:39:21;6.40;99.90
23347;DHT22;36852;45.466;11.066;2023-02-01T02:41:59;6.40;99.90
23347;DHT22;36852;45.466;11.066;2023-02-01T02:44:49;6.40;99.90
23347;DHT22;36852;45.466;11.066;2023-02-01T02:50:27;6.50;99.90
23347;DHT22;36852;45.466;11.066;2023-02-01T02:53:19;6.40;99.90
23347;DHT22;36852;45.466;11.066;2023-02-01T02:56:12;6.40;99.90
23347;DHT22;36852;45.466;11.066;2023-02-01T02:58:58;6.40;99.90
23347;DHT22;36852;45.466;11.066;2023-02-01T03:01:48;6.40;99.90
23347;DHT22;36852;45.466;11.066;2023-02-01T03:04:35;6.40;99.90
23347;DHT22;36852;45.466;11.066;2023-02-01T03:07:14;6.40;99.90
23347;DHT22;36852;45.466;11.066;2023-02-01T03:09:47;6.40;99.90
23347;DHT22;36852;45.466;11.066;2023-02-01T03:12:18;6.40;99.90
23347;DHT22;36852;45.466;11.066;2023-02-01T03:15:10;6.40;99.90
23347;DHT22;36852;45.466;11.066;2023-02-01T03:17:42;6.40;99.90
23347;DHT22;36852;45.466;11.066;2023-02-01T03:20:16;6.40;99.90
23347;DHT22;36852;45.466;11.066;2023-02-01T03:22:48;6.40;99.90
23347;DHT22;36852;45.466;11.066;2023-02-01T03:25:25;6.40;99.90
23347;DHT22;36852;45.466;11.066;2023-02-01T03:27:59;6.40;99.90
23347;DHT22;36852;45.466;11.066;2023-02-01T03:30:36;6.40;99.90
23347;DHT22;36852;45.466;11.066;2023-02-01T03:36:01;6.30;99.90
23347;DHT22;36852;45.466;11.066;2023-02-01T03:39:09;6.30;99.90
23347;DHT22;36852;45.466;11.066;2023-02-01T03:44:37;6.20;99.90
23347;DHT22;36852;45.466;11.066;2023-02-01T03:47:33;6.20;99.90
23347;DHT22;36852;45.466;11.066;2023-02-01T03:53:02;6.10;99.90
23347;DHT22;36852;45.466;11.066;2023-02-01T03:58:20;6.00;99.90
23347;DHT22;36852;45.466;11.066;2023-02-01T04:00:59;6.00;99.90
23347;DHT22;36852;45.466;11.066;2023-02-01T04:03:25;6.00;99.90
23347;DHT22;36852;45.466;11.066;2023-02-01T04:05:56;5.90;99.90
23347;DHT22;36852;45.466;11.066;2023-02-01T04:08:25;5.90;99.90
23347;DHT22;36852;45.466;11.066;2023-02-01T04:10:56;5.80;99.90
23347;DHT22;36852;45.466;11.066;2023-02-01T04:13:24;5.80;99.90
23347;DHT22;36852;45.466;11.066;2023-02-01T04:15:53;5.80;99.90
23347;DHT22;36852;45.466;11.066;2023-02-01T04:18:22;5.70;99.90
23347;DHT22;36852;45.466;11.066;2023-02-01T04:21:03;5.70;99.90
23347;DHT22;36852;45.466;11.066;2023-02-01T04:23:31;5.60;99.90
23347;DHT22;36852;45.466;11.066;2023-02-01T04:26:03;5.70;99.90
23347;DHT22;36852;45.466;11.066;2023-02-01T04:28:40;5.70;99.90
23347;DHT22;36852;45.466;11.066;2023-02-01T04:31:08;5.70;99.90
23347;DHT22;36852;45.466;11.066;2023-02-01T04:33:43;5.70;99.90
23347;DHT22;36852;45.466;11.066;2023-02-01T04:36:11;5.70;99.90
23347;DHT22;36852;45.466;11.066;2023-02-01T04:38:40;5.60;99.90
23347;DHT22;36852;45.466;11.066;2023-02-01T04:41:09;5.60;99.90
23347;DHT22;36852;45.466;11.066;2023-02-01T04:43:37;5.50;99.90
23347;DHT22;36852;45.466;11.066;2023-02-01T04:46:07;5.50;99.90
23347;DHT22;36852;45.466;11.066;2023-02-01T04:48:35;5.50;99.90
23347;DHT22;36852;45.466;11.066;2023-02-01T04:51:04;5.50;99.90
23347;DHT22;36852;45.466;11.066;2023-02-01T04:53:36;5.50;99.90
23347;DHT22;36852;45.466;11.066;2023-02-01T04:56:06;5.50;99.90
23347;DHT22;36852;45.466;11.066;2023-02-01T04:58:37;5.50;99.90
23347;DHT22;36852;45.466;11.066;2023-02-01T05:01:06;5.50;99.90
23347;DHT22;36852;45.466;11.066;2023-02-01T05:03:34;5.50;99.90
23347;DHT22;36852;45.466;11.066;2023-02-01T05:06:05;5.50;99.90
23347;DHT22;36852;45.466;11.066;2023-02-01T05:08:36;5.50;99.90
23347;DHT22;36852;45.466;11.066;2023-02-01T05:11:19;5.50;99.90
23347;DHT22;36852;45.466;11.066;2023-02-01T05:14:09;5.50;99.90
23347;DHT22;36852;45.466;11.066;2023-02-01T05:16:38;5.50;99.90
23347;DHT22;36852;45.466;11.066;2023-02-01T05:19:05;5.50;99.90
23347;DHT22;36852;45.466;11.066;2023-02-01T05:21:36;5.50;99.90
23347;DHT22;36852;45.466;11.066;2023-02-01T05:24:07;5.50;99.90
23347;DHT22;36852;45.466;11.066;2023-02-01T05:26:59;5.50;99.90
23347;DHT22;36852;45.466;11.066;2023-02-01T05:29:28;5.50;99.90
23347;DHT22;36852;45.466;11.066;2023-02-01T05:31:57;5.50;99.90
23347;DHT22;36852;45.466;11.066;2023-02-01T05:34:26;5.60;99.90
23347;DHT22;36852;45.466;11.066;2023-02-01T05:39:56;5.60;99.90
23347;DHT22;36852;45.466;11.066;2023-02-01T05:42:24;5.60;99.90
23347;DHT22;36852;45.466;11.066;2023-02-01T05:44:53;5.60;99.90
23347;DHT22;36852;45.466;11.066;2023-02-01T05:47:21;5.60;99.90
23347;DHT22;36852;45.466;11.066;2023-02-01T05:50:10;5.60;99.90
23347;DHT22;36852;45.466;11.066;2023-02-01T05:55:19;5.60;99.90
23347;DHT22;36852;45.466;11.066;2023-02-01T05:57:48;5.60;99.90
23347;DHT22;36852;45.466;11.066;2023-02-01T06:00:20;5.60;99.90
23347;DHT22;36852;45.466;11.066;2023-02-01T06:02:49;5.60;99.90
23347;DHT22;36852;45.466;11.066;2023-02-01T06:05:20;5.50;99.90
23347;DHT22;36852;45.466;11.066;2023-02-01T06:07:48;5.50;99.90
23347;DHT22;36852;45.466;11.066;2023-02-01T06:10:17;5.40;99.90
23347;DHT22;36852;45.466;11.066;2023-02-01T06:18:11;5.50;99.90
23347;DHT22;36852;45.466;11.066;2023-02-01T06:20:39;5.40;99.90
23347;DHT22;36852;45.466;11.066;2023-02-01T06:23:10;5.40;99.90
23347;DHT22;36852;45.466;11.066;2023-02-01T06:25:38;5.40;99.90
23347;DHT22;36852;45.466;11.066;2023-02-01T06:28:13;5.40;99.90
23347;DHT22;36852;45.466;11.066;2023-02-01T06:30:41;5.40;99.90
23347;DHT22;36852;45.466;11.066;2023-02-01T06:33:10;5.40;99.90
23347;DHT22;36852;45.466;11.066;2023-02-01T06:35:39;5.40;99.90
23347;DHT22;36852;45.466;11.066;2023-02-01T06:38:06;5.40;99.90
23347;DHT22;36852;45.466;11.066;2023-02-01T06:40:35;5.40;99.90
23347;DHT22;36852;45.466;11.066;2023-02-01T06:43:05;5.40;99.90
23347;DHT22;36852;45.466;11.066;2023-02-01T06:45:36;5.30;99.90
23347;DHT22;36852;45.466;11.066;2023-02-01T06:48:06;5.30;99.90
23347;DHT22;36852;45.466;11.066;2023-02-01T06:50:35;5.30;99.90
23347;DHT22;36852;45.466;11.066;2023-02-01T06:53:03;5.30;99.90
23347;DHT22;36852;45.466;11.066;2023-02-01T06:58:22;5.30;99.90
23347;DHT22;36852;45.466;11.066;2023-02-01T07:03:39;5.30;99.90
23347;DHT22;36852;45.466;11.066;2023-02-01T07:06:09;5.20;99.90
23347;DHT22;36852;45.466;11.066;2023-02-01T07:08:39;5.20;99.90
23347;DHT22;36852;45.466;11.066;2023-02-01T07:11:09;5.20;99.90
23347;DHT22;36852;45.466;11.066;2023-02-01T07:13:44;5.20;99.90
23347;DHT22;36852;45.466;11.066;2023-02-01T07:16:15;5.30;99.90
23347;DHT22;36852;45.466;11.066;2023-02-01T07:21:30;5.30;99.90
23347;DHT22;36852;45.466;11.066;2023-02-01T07:23:58;5.30;99.90
23347;DHT22;36852;45.466;11.066;2023-02-01T07:26:26;5.40;99.90
23347;DHT22;36852;45.466;11.066;2023-02-01T07:28:55;5.40;99.90
23347;DHT22;36852;45.466;11.066;2023-02-01T07:31:23;5.40;99.90
23347;DHT22;36852;45.466;11.066;2023-02-01T07:33:55;5.40;99.90
23347;DHT22;36852;45.466;11.066;2023-02-01T07:36:25;5.40;99.90
23347;DHT22;36852;45.466;11.066;2023-02-01T07:38:53;5.40;99.90
23347;DHT22;36852;45.466;11.066;2023-02-01T07:41:22;5.40;99.90
23347;DHT22;36852;45.466;11.066;2023-02-01T07:43:53;5.40;99.90
23347;DHT22;36852;45.466;11.066;2023-02-01T07:46:23;5.40;99.90
23347;DHT22;36852;45.466;11.066;2023-02-01T07:48:51;5.40;99.90
23347;DHT22;36852;45.466;11.066;2023-02-01T07:51:19;5.40;99.90
23347;DHT22;36852;45.466;11.066;2023-02-01T07:54:07;5.40;99.90
23347;DHT22;36852;45.466;11.066;2023-02-01T07:56:34;5.40;99.90
23347;DHT22;36852;45.466;11.066;2023-02-01T07:59:03;5.50;99.90
23347;DHT22;36852;45.466;11.066;2023-02-01T08:01:31;5.50;99.90
23347;DHT22;36852;45.466;11.066;2023-02-01T08:04:01;5.60;99.90
23347;DHT22;36852;45.466;11.066;2023-02-01T08:06:33;5.60;99.90
23347;DHT22;36852;45.466;11.066;2023-02-01T08:09:02;5.70;99.90
23347;DHT22;36852;45.466;11.066;2023-02-01T08:11:30;5.80;99.90
23347;DHT22;36852;45.466;11.066;2023-02-01T08:14:00;5.80;99.90
23347;DHT22;36852;45.466;11.066;2023-02-01T08:16:27;5.90;99.90
23347;DHT22;36852;45.466;11.066;2023-02-01T08:18:56;5.90;99.90
23347;DHT22;36852;45.466;11.066;2023-02-01T08:21:26;6.00;99.90
23347;DHT22;36852;45.466;11.066;2023-02-01T08:23:57;5.90;99.90
23347;DHT22;36852;45.466;11.066;2023-02-01T08:26:25;5.90;99.90
23347;DHT22;36852;45.466;11.066;2023-02-01T08:28:59;6.00;99.90
23347;DHT22;36852;45.466;11.066;2023-02-01T08:31:34;6.10;99.90
23347;DHT22;36852;45.466;11.066;2023-02-01T08:34:03;6.10;99.90
23347;DHT22;36852;45.466;11.066;2023-02-01T08:36:35;6.20;99.90
23347;DHT22;36852;45.466;11.066;2023-02-01T08:39:02;6.20;99.90
23347;DHT22;36852;45.466;11.066;2023-02-01T08:41:32;6.30;99.90
23347;DHT22;36852;45.466;11.066;2023-02-01T08:44:00;6.30;99.90
23347;DHT22;36852;45.466;11.066;2023-02-01T08:46:27;6.30;99.90
23347;DHT22;36852;45.466;11.066;2023-02-01T08:48:56;6.40;99.90
23347;DHT22;36852;45.466;11.066;2023-02-01T08:51:23;6.40;99.90
23347;DHT22;36852;45.466;11.066;2023-02-01T08:53:51;6.50;99.90
23347;DHT22;36852;45.466;11.066;2023-02-01T08:59:13;6.60;99.90
23347;DHT22;36852;45.466;11.066;2023-02-01T09:01:40;6.60;99.90
23347;DHT22;36852;45.466;11.066;2023-02-01T09:04:08;6.60;99.90
23347;DHT22;36852;45.466;11.066;2023-02-01T09:06:36;6.70;99.90
23347;DHT22;36852;45.466;11.066;2023-02-01T09:09:03;6.70;99.90
23347;DHT22;36852;45.466;11.066;2023-02-01T09:11:31;6.80;99.90
23347;DHT22;36852;45.466;11.066;2023-02-01T09:14:00;6.80;99.90
23347;DHT22;36852;45.466;11.066;2023-02-01T09:16:28;6.90;99.90
23347;DHT22;36852;45.466;11.066;2023-02-01T09:19:04;7.00;99.90
23347;DHT22;36852;45.466;11.066;2023-02-01T09:21:36;7.00;99.90
23347;DHT22;36852;45.466;11.066;2023-02-01T09:24:11;7.20;99.90
23347;DHT22;36852;45.466;11.066;2023-02-01T09:27:00;7.20;99.90
23347;DHT22;36852;45.466;11.066;2023-02-01T09:29:28;7.30;99.90
23347;DHT22;36852;45.466;11.066;2023-02-01T09:32:19;7.40;99.90
23347;DHT22;36852;45.466;11.066;2023-02-01T09:34:48;7.50;99.90
23347;DHT22;36852;45.466;11.066;2023-02-01T09:37:17;7.50;99.90
23347;DHT22;36852;45.466;11.066;2023-02-01T09:39:45;7.60;99.90
23347;DHT22;36852;45.466;11.066;2023-02-01T09:47:48;7.90;99.90
23347;DHT22;36852;45.466;11.066;2023-02-01T09:50:22;7.90;99.90
23347;DHT22;36852;45.466;11.066;2023-02-01T09:52:58;8.00;99.90
23347;DHT22;36852;45.466;11.066;2023-02-01T09:55:40;8.10;99.90
23347;DHT22;36852;45.466;11.066;2023-02-01T09:58:47;8.20;99.90
23347;DHT22;36852;45.466;11.066;2023-02-01T10:00:55;8.20;99.90
23347;DHT22;36852;45.466;11.066;2023-02-01T10:03:24;8.40;99.90
23347;DHT22;36852;45.466;11.066;2023-02-01T10:11:47;8.60;99.90
23347;DHT22;36852;45.466;11.066;2023-02-01T10:25:26;9.00;99.90
23347;DHT22;36852;45.466;11.066;2023-02-01T10:27:55;9.00;99.90
23347;DHT22;36852;45.466;11.066;2023-02-01T10:30:30;9.10;99.90
23347;DHT22;36852;45.466;11.066;2023-02-01T10:33:14;9.20;99.90
23347;DHT22;36852;45.466;11.066;2023-02-01T10:35:36;9.30;99.90
23347;DHT22;36852;45.466;11.066;2023-02-01T10:38:06;9.30;99.90
23347;DHT22;36852;45.466;11.066;2023-02-01T10:40:36;9.40;99.90
23347;DHT22;36852;45.466;11.066;2023-02-01T10:43:04;9.50;99.90
23347;DHT22;36852;45.466;11.066;2023-02-01T10:45:33;9.60;99.90
23347;DHT22;36852;45.466;11.066;2023-02-01T10:48:02;9.60;99.90
23347;DHT22;36852;45.466;11.066;2023-02-01T10:53:44;9.80;99.90
23347;DHT22;36852;45.466;11.066;2023-02-01T10:56:12;9.90;99.90
23347;DHT22;36852;45.466;11.066;2023-02-01T10:58:45;9.90;99.90
23347;DHT22;36852;45.466;11.066;2023-02-01T11:01:24;10.00;99.90
23347;DHT22;36852;45.466;11.066;2023-02-01T11:03:53;10.10;99.90
23347;DHT22;36852;45.466;11.066;2023-02-01T11:06:29;10.10;99.90
23347;DHT22;36852;45.466;11.066;2023-02-01T11:08:59;10.20;99.90
23347;DHT22;36852;45.466;11.066;2023-02-01T11:11:28;10.30;99.90
23347;DHT22;36852;45.466;11.066;2023-02-01T11:16:32;10.40;99.90
23347;DHT22;36852;45.466;11.066;2023-02-01T11:19:02;10.50;99.90
23347;DHT22;36852;45.466;11.066;2023-02-01T11:21:31;10.60;99.90
23347;DHT22;36852;45.466;11.066;2023-02-01T11:24:02;10.70;99.90
23347;DHT22;36852;45.466;11.066;2023-02-01T11:26:31;10.70;99.90
23347;DHT22;36852;45.466;11.066;2023-02-01T11:29:09;10.70;99.90
23347;DHT22;36852;45.466;11.066;2023-02-01T11:34:25;10.90;99.90
23347;DHT22;36852;45.466;11.066;2023-02-01T11:37:00;10.90;99.90
23347;DHT22;36852;45.466;11.066;2023-02-01T11:39:58;11.10;99.90
23347;DHT22;36852;45.466;11.066;2023-02-01T11:42:28;11.20;99.90
23347;DHT22;36852;45.466;11.066;2023-02-01T11:45:20;11.20;99.90
23347;DHT22;36852;45.466;11.066;2023-02-01T11:48:15;11.30;99.90
23347;DHT22;36852;45.466;11.066;2023-02-01T11:50:47;11.40;99.90
23347;DHT22;36852;45.466;11.066;2023-02-01T12:01:56;11.60;99.90
23347;DHT22;36852;45.466;11.066;2023-02-01T12:08:24;11.70;99.90
23347;DHT22;36852;45.466;11.066;2023-02-01T12:13:34;11.70;99.90
23347;DHT22;36852;45.466;11.066;2023-02-01T12:15:55;11.70;99.90
23347;DHT22;36852;45.466;11.066;2023-02-01T12:21:31;11.90;99.90
23347;DHT22;36852;45.466;11.066;2023-02-01T12:46:50;13.30;98.40
23347;DHT22;36852;45.466;11.066;2023-02-01T12:49:37;13.40;97.60
23347;DHT22;36852;45.466;11.066;2023-02-01T12:52:09;13.40;97.60
23347;DHT22;36852;45.466;11.066;2023-02-01T12:54:35;13.50;97.70
23347;DHT22;36852;45.466;11.066;2023-02-01T12:57:06;13.60;97.50
23347;DHT22;36852;45.466;11.066;2023-02-01T12:59:44;13.70;96.90
23347;DHT22;36852;45.466;11.066;2023-02-01T13:05:16;14.00;95.70
23347;DHT22;36852;45.466;11.066;2023-02-01T13:07:58;14.10;95.30
23347;DHT22;36852;45.466;11.066;2023-02-01T13:10:33;14.20;94.80
23347;DHT22;36852;45.466;11.066;2023-02-01T13:15:43;14.50;95.30
23347;DHT22;36852;45.466;11.066;2023-02-01T13:18:17;14.60;94.50
23347;DHT22;36852;45.466;11.066;2023-02-01T13:21:03;14.80;93.90
23347;DHT22;36852;45.466;11.066;2023-02-01T13:23:37;15.00;93.70
23347;DHT22;36852;45.466;11.066;2023-02-01T13:26:05;15.30;93.00
23347;DHT22;36852;45.466;11.066;2023-02-01T13:28:48;15.50;92.40
23347;DHT22;36852;45.466;11.066;2023-02-01T13:42:56;16.40;90.20
23347;DHT22;36852;45.466;11.066;2023-02-01T13:45:29;16.50;87.90
23347;DHT22;36852;45.466;11.066;2023-02-01T13:50:41;16.60;88.20
23347;DHT22;36852;45.466;11.066;2023-02-01T13:53:16;16.70;87.70
23347;DHT22;36852;45.466;11.066;2023-02-01T13:55:46;16.70;87.70
23347;DHT22;36852;45.466;11.066;2023-02-01T14:03:58;17.80;84.50
23347;DHT22;36852;45.466;11.066;2023-02-01T14:11:53;19.80;74.20
23347;DHT22;36852;45.466;11.066;2023-02-01T14:19:32;21.20;64.50
23347;DHT22;36852;45.466;11.066;2023-02-01T14:24:51;21.90;60.50
23347;DHT22;36852;45.466;11.066;2023-02-01T14:27:24;21.90;59.40
23347;DHT22;36852;45.466;11.066;2023-02-01T14:30:02;22.30;57.80
23347;DHT22;36852;45.466;11.066;2023-02-01T14:32:33;22.30;56.70
23347;DHT22;36852;45.466;11.066;2023-02-01T14:35:12;22.10;56.60
23347;DHT22;36852;45.466;11.066;2023-02-01T14:37:39;21.80;57.10
23347;DHT22;36852;45.466;11.066;2023-02-01T14:42:47;22.50;57.10
23347;DHT22;36852;45.466;11.066;2023-02-01T14:50:37;22.60;54.90
23347;DHT22;36852;45.466;11.066;2023-02-01T15:06:50;23.50;52.70
23347;DHT22;36852;45.466;11.066;2023-02-01T15:09:24;23.50;52.50
23347;DHT22;36852;45.466;11.066;2023-02-01T15:14:46;22.90;53.00
23347;DHT22;36852;45.466;11.066;2023-02-01T15:17:23;22.50;53.60
23347;DHT22;36852;45.466;11.066;2023-02-01T15:19:56;22.20;54.50
23347;DHT22;36852;45.466;11.066;2023-02-01T15:22:28;21.90;55.10
23347;DHT22;36852;45.466;11.066;2023-02-01T15:24:57;21.60;55.50
23347;DHT22;36852;45.466;11.066;2023-02-01T15:27:27;21.30;56.40
23347;DHT22;36852;45.466;11.066;2023-02-01T15:30:21;21.00;57.00
23347;DHT22;36852;45.466;11.066;2023-02-01T15:32:46;20.60;58.50
23347;DHT22;36852;45.466;11.066;2023-02-01T15:38:35;20.80;58.10
23347;DHT22;36852;45.466;11.066;2023-02-01T15:41:31;20.70;57.90
23347;DHT22;36852;45.466;11.066;2023-02-01T15:46:36;19.90;59.60
23347;DHT22;36852;45.466;11.066;2023-02-01T15:49:12;19.40;61.30
23347;DHT22;36852;45.466;11.066;2023-02-01T15:51:37;18.80;62.90
23347;DHT22;36852;45.466;11.066;2023-02-01T15:54:06;18.30;64.50
23347;DHT22;36852;45.466;11.066;2023-02-01T15:56:40;17.90;65.80
23347;DHT22;36852;45.466;11.066;2023-02-01T15:59:19;17.50;67.50
23347;DHT22;36852;45.466;11.066;2023-02-01T16:01:48;17.00;70.00
23347;DHT22;36852;45.466;11.066;2023-02-01T16:04:27;16.60;71.40
23347;DHT22;36852;45.466;11.066;2023-02-01T16:06:53;16.30;72.90
23347;DHT22;36852;45.466;11.066;2023-02-01T16:15:08;14.90;78.40
23347;DHT22;36852;45.466;11.066;2023-02-01T16:17:37;14.50;80.30
23347;DHT22;36852;45.466;11.066;2023-02-01T16:20:06;14.20;81.00
23347;DHT22;36852;45.466;11.066;2023-02-01T16:22:34;13.90;82.90
23347;DHT22;36852;45.466;11.066;2023-02-01T16:25:02;13.60;84.80
23347;DHT22;36852;45.466;11.066;2023-02-01T16:27:30;13.30;87.10
23347;DHT22;36852;45.466;11.066;2023-02-01T16:30:02;13.10;89.10
23347;DHT22;36852;45.466;11.066;2023-02-01T16:32:30;12.90;90.60
23347;DHT22;36852;45.466;11.066;2023-02-01T16:34:58;12.70;92.20
23347;DHT22;36852;45.466;11.066;2023-02-01T16:37:25;12.60;93.20
23347;DHT22;36852;45.466;11.066;2023-02-01T16:39:55;12.40;94.30
23347;DHT22;36852;45.466;11.066;2023-02-01T16:42:23;12.20;95.30
23347;DHT22;36852;45.466;11.066;2023-02-01T16:44:51;12.10;95.90
23347;DHT22;36852;45.466;11.066;2023-02-01T16:47:21;12.00;96.60
23347;DHT22;36852;45.466;11.066;2023-02-01T16:49:50;11.90;97.20
23347;DHT22;36852;45.466;11.066;2023-02-01T16:52:20;11.80;97.60
23347;DHT22;36852;45.466;11.066;2023-02-01T16:54:49;11.70;98.40
23347;DHT22;36852;45.466;11.066;2023-02-01T16:59:58;11.50;99.90
23347;DHT22;36852;45.466;11.066;2023-02-01T17:02:30;11.40;99.90
23347;DHT22;36852;45.466;11.066;2023-02-01T17:04:58;11.30;99.90
23347;DHT22;36852;45.466;11.066;2023-02-01T17:07:26;11.30;99.90
23347;DHT22;36852;45.466;11.066;2023-02-01T17:09:55;11.20;99.90
23347;DHT22;36852;45.466;11.066;2023-02-01T17:12:28;11.10;99.90
23347;DHT22;36852;45.466;11.066;2023-02-01T17:14:58;11.10;99.90
23347;DHT22;36852;45.466;11.066;2023-02-01T17:17:35;11.10;99.90
23347;DHT22;36852;45.466;11.066;2023-02-01T17:20:06;11.00;99.90
23347;DHT22;36852;45.466;11.066;2023-02-01T17:22:34;10.90;99.90
23347;DHT22;36852;45.466;11.066;2023-02-01T17:27:49;10.80;99.90
23347;DHT22;36852;45.466;11.066;2023-02-01T17:30:17;10.80;99.90
23347;DHT22;36852;45.466;11.066;2023-02-01T17:32:44;10.70;99.90
23347;DHT22;36852;45.466;11.066;2023-02-01T17:35:21;10.70;99.90
23347;DHT22;36852;45.466;11.066;2023-02-01T17:37:51;10.60;99.90
23347;DHT22;36852;45.466;11.066;2023-02-01T17:40:19;10.60;99.90
23347;DHT22;36852;45.466;11.066;2023-02-01T17:42:47;10.50;99.90
23347;DHT22;36852;45.466;11.066;2023-02-01T17:45:39;10.50;99.90
23347;DHT22;36852;45.466;11.066;2023-02-01T17:48:05;10.50;99.90
23347;DHT22;36852;45.466;11.066;2023-02-01T17:50:35;10.40;99.90
23347;DHT22;36852;45.466;11.066;2023-02-01T17:53:10;10.30;99.90
23347;DHT22;36852;45.466;11.066;2023-02-01T17:55:42;10.20;99.90
23347;DHT22;36852;45.466;11.066;2023-02-01T17:58:13;10.20;99.90
23347;DHT22;36852;45.466;11.066;2023-02-01T18:00:42;10.10;99.90
23347;DHT22;36852;45.466;11.066;2023-02-01T18:03:18;10.10;99.90
23347;DHT22;36852;45.466;11.066;2023-02-01T18:05:44;10.00;99.90
23347;DHT22;36852;45.466;11.066;2023-02-01T18:08:18;10.00;99.90
23347;DHT22;36852;45.466;11.066;2023-02-01T18:10:50;10.00;99.90
23347;DHT22;36852;45.466;11.066;2023-02-01T18:13:19;9.90;99.90
23347;DHT22;36852;45.466;11.066;2023-02-01T18:15:47;9.80;99.90
23347;DHT22;36852;45.466;11.066;2023-02-01T18:18:15;9.80;99.90
23347;DHT22;36852;45.466;11.066;2023-02-01T18:20:45;9.80;99.90
23347;DHT22;36852;45.466;11.066;2023-02-01T18:23:19;9.80;99.90
23347;DHT22;36852;45.466;11.066;2023-02-01T18:25:49;9.80;99.90
23347;DHT22;36852;45.466;11.066;2023-02-01T18:28:18;9.80;99.90
23347;DHT22;36852;45.466;11.066;2023-02-01T18:30:48;9.90;99.90
23347;DHT22;36852;45.466;11.066;2023-02-01T18:33:19;9.80;99.90
23347;DHT22;36852;45.466;11.066;2023-02-01T18:35:47;9.80;99.90
23347;DHT22;36852;45.466;11.066;2023-02-01T18:38:15;9.80;99.90
23347;DHT22;36852;45.466;11.066;2023-02-01T18:40:49;9.80;99.90
23347;DHT22;36852;45.466;11.066;2023-02-01T18:43:19;9.70;99.90
23347;DHT22;36852;45.466;11.066;2023-02-01T18:45:48;9.70;99.90
23347;DHT22;36852;45.466;11.066;2023-02-01T18:48:17;9.60;99.90
23347;DHT22;36852;45.466;11.066;2023-02-01T18:50:45;9.60;99.90
23347;DHT22;36852;45.466;11.066;2023-02-01T18:53:18;9.50;99.90
23347;DHT22;36852;45.466;11.066;2023-02-01T18:58:38;9.50;99.90
23347;DHT22;36852;45.466;11.066;2023-02-01T19:01:18;9.50;99.90
23347;DHT22;36852;45.466;11.066;2023-02-01T19:03:45;9.50;99.90
23347;DHT22;36852;45.466;11.066;2023-02-01T19:06:15;9.40;99.90
23347;DHT22;36852;45.466;11.066;2023-02-01T19:08:45;9.30;99.90
23347;DHT22;36852;45.466;11.066;2023-02-01T19:11:12;9.30;99.90
23347;DHT22;36852;45.466;11.066;2023-02-01T19:16:22;9.20;99.90
23347;DHT22;36852;45.466;11.066;2023-02-01T19:18:53;9.10;99.90
23347;DHT22;36852;45.466;11.066;2023-02-01T19:21:20;9.10;99.90
23347;DHT22;36852;45.466;11.066;2023-02-01T19:23:48;9.00;99.90
23347;DHT22;36852;45.466;11.066;2023-02-01T19:26:16;9.10;99.90
23347;DHT22;36852;45.466;11.066;2023-02-01T19:28:44;9.00;99.90
23347;DHT22;36852;45.466;11.066;2023-02-01T19:31:15;9.00;99.90
23347;DHT22;36852;45.466;11.066;2023-02-01T19:33:44;8.90;99.90
23347;DHT22;36852;45.466;11.066;2023-02-01T19:36:12;8.90;99.90
23347;DHT22;36852;45.466;11.066;2023-02-01T19:38:40;8.90;99.90
23347;DHT22;36852;45.466;11.066;2023-02-01T19:41:29;8.90;99.90
23347;DHT22;36852;45.466;11.066;2023-02-01T19:43:56;8.80;99.90
23347;DHT22;36852;45.466;11.066;2023-02-01T19:46:25;8.80;99.90
23347;DHT22;36852;45.466;11.066;2023-02-01T19:48:53;8.70;99.90